Time;durP1;ratioP1;P1;durP2;ratioP2;P2;SDS_P1;SDS_P2;PMS_P1;PMS_P2;Temp;Humidity;BMP_temperature;BMP_pressure;BME280_temperature;BME280_humidity;BME280_pressure;Samples;Min_cycle;Max_cycle;Signal;HPM_P1;HPM_P2
2022/06/28 00:04:43;;;;;;;9.55;5.38;;;;;;;;;;10398414;28;20108;-75
2022/06/28 00:09:43;;;;;;;13.10;6.82;;;;;;;;;;10399103;28;20038;-68
2022/06/28 00:20:03;;;;;;;11.60;6.25;;;;;;;;;;10388193;28;20017;-74
2022/06/28 00:25:04;;;;;;;9.85;6.53;;;;;;;;;;10397186;28;20046;-75
2022/06/28 00:30:05;;;;;;;8.20;6.05;;;;;;;;;;10415433;28;20116;-70
2022/06/28 00:35:05;;;;;;;11.20;6.20;;;;;;;;;;10389492;28;20373;-73
2022/06/28 00:40:06;;;;;;;6.70;5.75;;;;;;;;;;10397272;28;20025;-74
2022/06/28 00:45:07;;;;;;;6.65;5.35;;;;;;;;;;10398101;28;20013;-74
2022/06/28 00:50:07;;;;;;;7.28;5.53;;;;;;;;;;10397548;28;20017;-70
2022/06/28 00:55:08;;;;;;;6.72;5.80;;;;;;;;;;10386367;28;20121;-75
2022/06/28 01:00:08;;;;;;;8.43;5.80;;;;;;;;;;10397456;28;20124;-70
2022/06/28 01:05:08;;;;;;;8.80;6.10;;;;;;;;;;10414521;28;20624;-77
2022/06/28 01:10:10;;;;;;;8.30;5.65;;;;;;;;;;10384945;28;20021;-71
2022/06/28 01:15:10;;;;;;;13.10;6.78;;;;;;;;;;10413983;28;20405;-74
2022/06/28 01:20:10;;;;;;;7.93;6.32;;;;;;;;;;10400828;28;20025;-75
2022/06/28 01:25:11;;;;;;;6.30;5.40;;;;;;;;;;10391784;28;20112;-70
2022/06/28 01:30:12;;;;;;;9.35;6.15;;;;;;;;;;10396823;28;20653;-76
2022/06/28 01:35:12;;;;;;;9.43;6.23;;;;;;;;;;10384669;28;20501;-72
2022/06/28 01:40:12;;;;;;;10.02;6.38;;;;;;;;;;10394945;28;20029;-75
2022/06/28 01:45:13;;;;;;;12.60;5.88;;;;;;;;;;10397066;28;20410;-75
2022/06/28 01:50:14;;;;;;;10.50;6.03;;;;;;;;;;10396793;28;20030;-76
2022/06/28 01:55:14;;;;;;;10.87;6.30;;;;;;;;;;10394040;28;20037;-74
2022/06/28 02:00:15;;;;;;;11.90;7.03;;;;;;;;;;10413155;28;20036;-68
2022/06/28 02:05:15;;;;;;;8.38;6.93;;;;;;;;;;10412635;28;20108;-73
2022/06/28 02:10:16;;;;;;;8.85;6.43;;;;;;;;;;10396012;28;20037;-75
2022/06/28 02:15:16;;;;;;;8.95;6.07;;;;;;;;;;10399714;28;20068;-73
2022/06/28 02:20:16;;;;;;;9.13;6.73;;;;;;;;;;10397379;28;20026;-73
2022/06/28 02:25:17;;;;;;;12.05;7.18;;;;;;;;;;10411705;28;20797;-76
2022/06/28 02:30:18;;;;;;;8.50;6.95;;;;;;;;;;10396062;28;20116;-76
2022/06/28 02:40:37;;;;;;;8.80;7.15;;;;;;;;;;10390824;28;20038;-75
2022/06/28 02:45:39;;;;;;;9.40;6.90;;;;;;;;;;10384922;28;20064;-71
2022/06/28 02:50:40;;;;;;;10.07;6.68;;;;;;;;;;10393371;28;20025;-75
2022/06/28 02:55:40;;;;;;;9.30;6.80;;;;;;;;;;10411787;28;20647;-73
2022/06/28 03:00:40;;;;;;;10.02;5.90;;;;;;;;;;10408045;28;20040;-73
2022/06/28 03:05:40;;;;;;;10.95;6.40;;;;;;;;;;10398664;28;20024;-73
2022/06/28 03:10:41;;;;;;;7.82;6.22;;;;;;;;;;10398314;28;20021;-74
2022/06/28 03:15:41;;;;;;;10.25;6.10;;;;;;;;;;10418724;28;20167;-75
2022/06/28 03:20:42;;;;;;;9.07;6.47;;;;;;;;;;10412174;28;20033;-76
2022/06/28 03:25:42;;;;;;;12.32;6.50;;;;;;;;;;10410552;28;20044;-74
2022/06/28 03:30:42;;;;;;;11.38;7.50;;;;;;;;;;10400048;28;20025;-74
2022/06/28 03:35:42;;;;;;;11.35;6.55;;;;;;;;;;10417501;28;20040;-73
2022/06/28 03:40:43;;;;;;;8.85;6.38;;;;;;;;;;10404355;28;20048;-76
2022/06/28 03:45:43;;;;;;;9.35;7.05;;;;;;;;;;10394004;28;20076;-71
2022/06/28 03:50:43;;;;;;;12.98;5.70;;;;;;;;;;10394736;28;20021;-74
2022/06/28 03:55:43;;;;;;;7.05;5.65;;;;;;;;;;10401044;28;20392;-71
2022/06/28 04:00:44;;;;;;;8.43;6.15;;;;;;;;;;10398930;28;20045;-75
2022/06/28 04:05:44;;;;;;;8.82;5.63;;;;;;;;;;10415991;28;20396;-73
2022/06/28 04:10:44;;;;;;;9.40;6.63;;;;;;;;;;10399235;28;20025;-72
2022/06/28 04:15:45;;;;;;;13.50;6.13;;;;;;;;;;10388997;28;20091;-72
2022/06/28 04:20:45;;;;;;;8.38;5.50;;;;;;;;;;10415665;28;20029;-73
2022/06/28 04:25:45;;;;;;;7.47;5.18;;;;;;;;;;10379282;28;20391;-74
2022/06/28 04:30:46;;;;;;;8.10;5.45;;;;;;;;;;10396259;28;20074;-76
2022/06/28 04:35:46;;;;;;;7.35;5.03;;;;;;;;;;10406295;28;20025;-75
2022/06/28 04:40:46;;;;;;;11.15;5.88;;;;;;;;;;10401799;28;20028;-74
2022/06/28 04:45:46;;;;;;;9.70;6.00;;;;;;;;;;10396592;28;20083;-70
2022/06/28 04:50:47;;;;;;;12.03;6.27;;;;;;;;;;10411099;28;20120;-69
2022/06/28 04:55:47;;;;;;;10.07;5.90;;;;;;;;;;10398578;28;20404;-74
2022/06/28 05:00:47;;;;;;;8.27;6.32;;;;;;;;;;10385951;28;20029;-74
2022/06/28 05:05:47;;;;;;;9.52;6.43;;;;;;;;;;10397704;28;20018;-75
2022/06/28 05:10:48;;;;;;;13.02;6.32;;;;;;;;;;10388978;28;20022;-75
2022/06/28 05:15:48;;;;;;;13.88;5.00;;;;;;;;;;10410536;28;20136;-75
2022/06/28 05:20:51;;;;;;;9.25;5.72;;;;;;;;;;10402420;28;20463;-71
2022/06/28 05:25:52;;;;;;;9.00;5.53;;;;;;;;;;10384261;28;20044;-75
2022/06/28 05:30:53;;;;;;;9.25;5.45;;;;;;;;;;10384146;28;20013;-75
2022/06/28 05:35:54;;;;;;;15.27;5.88;;;;;;;;;;10406378;28;20014;-75
2022/06/28 05:40:54;;;;;;;14.10;6.35;;;;;;;;;;10407022;28;20499;-72
2022/06/28 05:45:55;;;;;;;12.25;6.15;;;;;;;;;;10395048;28;20030;-75
2022/06/28 05:50:55;;;;;;;11.00;6.22;;;;;;;;;;10405577;28;20054;-75
2022/06/28 05:55:55;;;;;;;10.07;6.18;;;;;;;;;;10386420;28;20061;-76
2022/06/28 06:00:56;;;;;;;15.88;7.45;;;;;;;;;;10405800;28;20029;-72
2022/06/28 06:05:56;;;;;;;11.85;6.47;;;;;;;;;;10412274;28;20108;-75
2022/06/28 06:10:56;;;;;;;9.60;5.68;;;;;;;;;;10395572;28;20044;-79
2022/06/28 06:15:56;;;;;;;8.70;5.97;;;;;;;;;;10402516;28;20021;-79
2022/06/28 06:20:57;;;;;;;8.75;6.45;;;;;;;;;;10394106;28;20013;-75
2022/06/28 06:25:57;;;;;;;10.20;6.07;;;;;;;;;;10394845;28;20044;-75
2022/06/28 06:30:57;;;;;;;11.90;7.60;;;;;;;;;;10386002;28;20047;-74
2022/06/28 06:35:57;;;;;;;11.70;5.97;;;;;;;;;;10395852;28;20026;-75
2022/06/28 06:40:59;;;;;;;16.85;6.57;;;;;;;;;;10398846;28;20116;-75
2022/06/28 06:45:59;;;;;;;14.05;6.15;;;;;;;;;;10391242;28;20020;-75
2022/06/28 06:51:00;;;;;;;14.18;6.35;;;;;;;;;;10404473;28;20534;-76
2022/06/28 06:56:00;;;;;;;10.10;5.47;;;;;;;;;;10416887;28;20473;-76
2022/06/28 07:01:01;;;;;;;13.02;5.75;;;;;;;;;;10402429;28;20013;-75
2022/06/28 07:06:01;;;;;;;12.43;5.20;;;;;;;;;;10407553;28;20395;-75
2022/06/28 07:11:01;;;;;;;10.50;5.20;;;;;;;;;;10399962;28;20568;-71
2022/06/28 07:16:02;;;;;;;8.63;4.90;;;;;;;;;;10391182;28;20017;-76
2022/06/28 07:21:02;;;;;;;7.33;4.70;;;;;;;;;;10405729;28;20029;-75
2022/06/28 07:26:03;;;;;;;6.33;4.20;;;;;;;;;;10398497;28;20570;-71
2022/06/28 07:31:03;;;;;;;13.63;4.82;;;;;;;;;;10417666;28;20028;-72
2022/06/28 07:36:03;;;;;;;6.43;3.33;;;;;;;;;;10417367;28;20021;-75
2022/06/28 07:41:04;;;;;;;9.53;3.97;;;;;;;;;;10397191;28;20026;-70
2022/06/28 07:46:04;;;;;;;4.38;3.25;;;;;;;;;;10397050;28;20013;-71
2022/06/28 07:56:23;;;;;;;5.18;2.95;;;;;;;;;;10402381;28;20557;-76
2022/06/28 08:01:24;;;;;;;6.65;3.38;;;;;;;;;;10416102;28;20029;-74
2022/06/28 08:06:24;;;;;;;13.47;3.83;;;;;;;;;;10399075;28;20022;-75
2022/06/28 08:11:24;;;;;;;9.70;3.60;;;;;;;;;;10393033;28;20018;-76
2022/06/28 08:16:25;;;;;;;5.10;3.00;;;;;;;;;;10393317;28;20018;-72
2022/06/28 08:21:26;;;;;;;5.45;3.38;;;;;;;;;;10372360;28;20479;-77
2022/06/28 08:26:26;;;;;;;7.18;2.70;;;;;;;;;;10399034;28;20045;-71
2022/06/28 08:31:27;;;;;;;5.10;2.60;;;;;;;;;;10387244;28;20025;-75
2022/06/28 08:36:27;;;;;;;12.13;2.08;;;;;;;;;;10399615;28;20471;-74
2022/06/28 08:41:28;;;;;;;5.28;2.00;;;;;;;;;;10404625;28;20064;-72
2022/06/28 08:46:31;;;;;;;5.53;2.47;;;;;;;;;;10413030;28;20010;-74
2022/06/28 08:51:32;;;;;;;4.43;2.22;;;;;;;;;;10395195;28;20486;-76
2022/06/28 08:56:32;;;;;;;4.25;2.13;;;;;;;;;;10385384;28;20029;-76
2022/06/28 09:01:33;;;;;;;5.22;1.80;;;;;;;;;;10402281;28;20486;-77
2022/06/28 09:06:34;;;;;;;2.55;2.00;;;;;;;;;;10382182;28;20028;-78
2022/06/28 09:11:38;;;;;;;4.53;1.77;;;;;;;;;;10444402;23;20051;-71
2022/06/28 09:16:38;;;;;;;2.83;2.03;;;;;;;;;;10442978;28;20474;-76
2022/06/28 09:21:42;;;;;;;2.25;1.67;;;;;;;;;;10431899;28;20025;-78
2022/06/28 09:26:43;;;;;;;4.13;1.77;;;;;;;;;;10433174;28;20021;-71
2022/06/28 09:31:43;;;;;;;3.47;1.98;;;;;;;;;;10443256;28;20467;-75
2022/06/28 09:36:57;;;;;;;2.08;1.88;;;;;;;;;;10465359;28;20021;-77
2022/06/28 09:41:57;;;;;;;3.45;2.17;;;;;;;;;;10449190;28;20032;-74
2022/06/28 09:46:58;;;;;;;2.20;1.70;;;;;;;;;;10429248;28;20024;-77
2022/06/28 09:51:58;;;;;;;3.58;1.60;;;;;;;;;;10431260;28;20506;-76
2022/06/28 09:57:00;;;;;;;7.82;2.35;;;;;;;;;;10431602;28;20627;-76
2022/06/28 10:02:00;;;;;;;3.17;2.10;;;;;;;;;;10424358;28;20597;-76
2022/06/28 10:07:01;;;;;;;4.82;2.35;;;;;;;;;;10423013;28;20216;-76
2022/06/28 10:17:33;;;;;;;7.13;3.42;;;;;;;;;;10432242;28;20029;-75
2022/06/28 10:22:33;;;;;;;5.03;2.90;;;;;;;;;;10450348;28;20547;-75
2022/06/28 10:27:42;;;;;;;7.28;2.90;;;;;;;;;;10431649;28;20021;-78
2022/06/28 10:32:43;;;;;;;5.50;2.40;;;;;;;;;;10433484;28;20033;-75
2022/06/28 10:38:02;;;;;;;6.22;3.08;;;;;;;;;;10433780;28;20051;-75
2022/06/28 10:43:02;;;;;;;4.43;2.97;;;;;;;;;;10434123;28;20039;-76
2022/06/28 10:48:11;;;;;;;5.68;3.03;;;;;;;;;;10432319;28;20610;-76
2022/06/28 10:53:12;;;;;;;7.20;3.65;;;;;;;;;;10429922;28;20025;-78
2022/06/28 10:58:12;;;;;;;6.00;3.30;;;;;;;;;;10432169;28;20021;-76
2022/06/28 11:03:12;;;;;;;2.90;2.67;;;;;;;;;;10433262;28;20043;-80
2022/06/28 11:08:17;;;;;;;11.23;3.80;;;;;;;;;;10433860;28;20395;-77
2022/06/28 11:13:18;;;;;;;6.38;3.08;;;;;;;;;;10432928;28;20060;-77
2022/06/28 11:18:20;;;;;;;9.20;3.03;;;;;;;;;;10434029;28;20033;-76
2022/06/28 11:23:23;;;;;;;5.72;3.65;;;;;;;;;;10446707;28;20033;-76
2022/06/28 11:28:23;;;;;;;5.18;2.63;;;;;;;;;;10428699;28;20017;-71
2022/06/28 11:33:30;;;;;;;5.63;3.30;;;;;;;;;;10431331;28;20104;-79
2022/06/28 11:38:31;;;;;;;4.47;2.85;;;;;;;;;;10439775;28;20037;-75
2022/06/28 11:43:31;;;;;;;4.47;2.95;;;;;;;;;;10434076;28;20041;-76
2022/06/28 11:48:31;;;;;;;5.78;3.95;;;;;;;;;;10429547;28;20029;-76
2022/06/28 11:53:42;;;;;;;7.90;3.80;;;;;;;;;;10426451;28;20073;-76
2022/06/28 11:58:44;;;;;;;5.43;2.95;;;;;;;;;;10432230;28;20032;-81
2022/06/28 12:03:44;;;;;;;10.30;4.70;;;;;;;;;;10434741;28;20025;-76
2022/06/28 12:08:45;;;;;;;3.95;2.90;;;;;;;;;;10430249;28;20550;-77
2022/06/28 12:13:45;;;;;;;5.28;2.80;;;;;;;;;;10429664;28;20045;-76
2022/06/28 12:18:56;;;;;;;6.95;4.20;;;;;;;;;;10432495;28;20056;-81
2022/06/28 12:23:57;;;;;;;3.40;2.22;;;;;;;;;;10435901;28;20047;-79
2022/06/28 12:28:57;;;;;;;5.43;2.72;;;;;;;;;;10436702;28;20024;-79
2022/06/28 12:33:58;;;;;;;3.60;2.50;;;;;;;;;;10464710;28;20028;-74
2022/06/28 12:38:58;;;;;;;3.15;2.60;;;;;;;;;;10434228;28;20028;-80
2022/06/28 12:43:58;;;;;;;4.38;2.65;;;;;;;;;;10437106;28;20564;-79
2022/06/28 12:48:58;;;;;;;2.40;2.20;;;;;;;;;;10434085;28;20422;-76
2022/06/28 12:53:59;;;;;;;7.10;3.27;;;;;;;;;;10435122;28;20060;-79
2022/06/28 12:58:59;;;;;;;4.95;2.08;;;;;;;;;;10432664;28;20033;-79
2022/06/28 13:04:00;;;;;;;5.00;3.37;;;;;;;;;;10435253;28;20036;-77
2022/06/28 13:09:00;;;;;;;5.17;3.27;;;;;;;;;;10433063;28;20017;-73
2022/06/28 13:14:00;;;;;;;3.13;2.60;;;;;;;;;;10435830;28;20041;-73
2022/06/28 13:19:01;;;;;;;5.45;2.88;;;;;;;;;;10434947;28;20053;-74
2022/06/28 13:24:01;;;;;;;7.23;3.07;;;;;;;;;;10432944;28;20041;-78
2022/06/28 13:29:01;;;;;;;4.97;3.28;;;;;;;;;;10432291;28;20367;-78
2022/06/28 13:34:02;;;;;;;11.88;4.07;;;;;;;;;;10433799;28;20033;-73
2022/06/28 13:39:03;;;;;;;5.75;3.67;;;;;;;;;;10434050;28;20501;-74
2022/06/28 13:44:03;;;;;;;4.03;3.30;;;;;;;;;;10431998;28;20048;-76
2022/06/28 13:49:03;;;;;;;5.30;3.43;;;;;;;;;;10432274;28;20529;-72
2022/06/28 13:54:04;;;;;;;5.15;2.85;;;;;;;;;;10434161;28;20078;-72
2022/06/28 13:59:04;;;;;;;5.22;3.00;;;;;;;;;;10430966;28;20029;-72
2022/06/28 14:04:04;;;;;;;5.97;4.50;;;;;;;;;;10415934;28;20021;-73
2022/06/28 14:09:04;;;;;;;5.15;3.25;;;;;;;;;;10431601;28;20036;-77
2022/06/28 14:14:05;;;;;;;5.18;3.17;;;;;;;;;;10428916;28;20087;-72
2022/06/28 14:19:05;;;;;;;4.38;3.45;;;;;;;;;;10429379;28;20033;-75
2022/06/28 14:24:05;;;;;;;4.72;3.30;;;;;;;;;;10431035;28;20071;-77
2022/06/28 14:29:05;;;;;;;3.60;3.07;;;;;;;;;;10429178;28;20036;-77
2022/06/28 14:34:06;;;;;;;4.30;3.35;;;;;;;;;;10430660;28;20017;-75
2022/06/28 14:39:06;;;;;;;6.75;3.42;;;;;;;;;;10431445;28;20031;-77
2022/06/28 14:44:07;;;;;;;7.20;3.30;;;;;;;;;;10434859;28;20036;-72
2022/06/28 14:49:07;;;;;;;6.65;3.80;;;;;;;;;;10429325;28;20021;-77
2022/06/28 14:54:08;;;;;;;5.47;3.00;;;;;;;;;;10431019;28;20037;-77
2022/06/28 14:59:08;;;;;;;6.93;2.83;;;;;;;;;;10430981;28;20676;-78
2022/06/28 15:04:08;;;;;;;4.53;3.35;;;;;;;;;;10439167;28;20033;-75
2022/06/28 15:09:09;;;;;;;6.38;4.78;;;;;;;;;;10437498;28;20036;-77
2022/06/28 15:14:09;;;;;;;4.00;3.60;;;;;;;;;;10434197;28;20049;-77
2022/06/28 15:19:09;;;;;;;5.05;3.85;;;;;;;;;;10430060;28;20045;-74
2022/06/28 15:34:50;;;;;;;9.18;3.80;;;;;;;;;;10440150;28;20076;-77
2022/06/28 15:39:50;;;;;;;4.45;3.33;;;;;;;;;;10438002;28;20021;-77
2022/06/28 15:44:51;;;;;;;5.93;4.28;;;;;;;;;;10438415;28;20076;-71
2022/06/28 15:49:51;;;;;;;8.35;3.70;;;;;;;;;;10430922;28;20034;-77
2022/06/28 15:54:51;;;;;;;8.27;3.67;;;;;;;;;;10434884;28;20715;-73
2022/06/28 15:59:52;;;;;;;6.22;3.40;;;;;;;;;;10434621;28;20032;-72
2022/06/28 16:04:52;;;;;;;7.80;3.80;;;;;;;;;;10437012;28;20035;-72
2022/06/28 16:09:52;;;;;;;4.60;3.88;;;;;;;;;;10435819;28;20040;-76
2022/06/28 16:14:52;;;;;;;6.77;3.73;;;;;;;;;;10435904;28;20045;-72
2022/06/28 16:19:53;;;;;;;6.80;3.97;;;;;;;;;;10436871;28;20044;-75
2022/06/28 16:24:53;;;;;;;4.57;3.85;;;;;;;;;;10434010;28;20075;-78
2022/06/28 16:29:54;;;;;;;8.82;4.00;;;;;;;;;;10433317;28;20104;-73
2022/06/28 16:34:54;;;;;;;7.70;5.22;;;;;;;;;;10431886;28;20032;-76
2022/06/28 16:39:54;;;;;;;16.38;3.38;;;;;;;;;;10436742;28;20065;-76
2022/06/28 16:44:55;;;;;;;24.20;5.37;;;;;;;;;;10429729;28;20664;-77
2022/06/28 16:49:55;;;;;;;28.38;6.97;;;;;;;;;;10422856;28;20076;-78
2022/06/28 16:54:55;;;;;;;27.73;8.30;;;;;;;;;;10431404;28;20427;-76
2022/06/28 16:59:57;;;;;;;17.65;8.75;;;;;;;;;;10425671;28;20020;-75
2022/06/28 17:04:58;;;;;;;12.98;8.50;;;;;;;;;;10436027;28;20028;-72
2022/06/28 17:09:59;;;;;;;16.63;9.57;;;;;;;;;;10430817;28;20013;-73
2022/06/28 17:14:59;;;;;;;16.88;9.55;;;;;;;;;;10430580;28;20126;-78
2022/06/28 17:20:00;;;;;;;16.52;10.40;;;;;;;;;;10433905;28;20098;-79
2022/06/28 17:25:00;;;;;;;17.35;10.93;;;;;;;;;;10429707;28;20021;-77
2022/06/28 17:30:01;;;;;;;18.05;9.68;;;;;;;;;;10427957;28;20103;-78
2022/06/28 17:35:01;;;;;;;12.55;8.50;;;;;;;;;;10423933;28;20014;-78
2022/06/28 17:40:02;;;;;;;13.48;8.80;;;;;;;;;;10428500;28;20016;-77
2022/06/28 17:45:04;;;;;;;12.40;7.75;;;;;;;;;;10426107;28;20099;-78
2022/06/28 17:50:08;;;;;;;16.40;9.50;;;;;;;;;;10425800;28;20025;-79
2022/06/28 17:55:08;;;;;;;6.53;5.03;;;;;;;;;;10425091;28;20492;-73
2022/06/28 18:00:08;;;;;;;10.00;4.80;;;;;;;;;;10430991;28;20036;-73
2022/06/28 18:05:09;;;;;;;13.13;8.23;;;;;;;;;;10430417;28;20029;-78
2022/06/28 18:10:09;;;;;;;21.13;8.45;;;;;;;;;;10429853;28;20107;-76
2022/06/28 18:15:09;;;;;;;15.23;8.55;;;;;;;;;;10430881;28;20048;-77
2022/06/28 18:20:10;;;;;;;14.57;8.82;;;;;;;;;;10434778;28;20025;-76
2022/06/28 18:25:10;;;;;;;13.75;9.32;;;;;;;;;;10440172;28;20010;-78
2022/06/28 18:30:11;;;;;;;15.55;9.30;;;;;;;;;;10425309;28;20028;-79
2022/06/28 18:35:12;;;;;;;17.90;9.38;;;;;;;;;;10432367;28;20055;-83
2022/06/28 18:40:13;;;;;;;16.35;9.75;;;;;;;;;;10440426;28;20896;-75
2022/06/28 18:45:13;;;;;;;18.30;10.30;;;;;;;;;;10435509;28;20112;-78
2022/06/28 18:50:14;;;;;;;14.37;10.43;;;;;;;;;;10435496;28;20013;-76
2022/06/28 18:55:15;;;;;;;16.43;11.00;;;;;;;;;;10435692;28;20025;-76
2022/06/28 19:00:16;;;;;;;17.73;11.35;;;;;;;;;;10439579;28;20267;-75
2022/06/28 19:05:16;;;;;;;18.30;12.40;;;;;;;;;;10417785;28;20021;-75
2022/06/28 19:10:17;;;;;;;15.40;10.63;;;;;;;;;;10437011;28;20037;-74
2022/06/28 19:15:17;;;;;;;20.97;12.80;;;;;;;;;;10433102;28;20088;-79
2022/06/28 19:20:17;;;;;;;22.17;10.25;;;;;;;;;;10436964;28;20037;-78
2022/06/28 19:25:17;;;;;;;18.02;10.23;;;;;;;;;;10432306;28;22031;-79
2022/06/28 19:30:18;;;;;;;19.52;10.43;;;;;;;;;;10431192;28;20060;-77
2022/06/28 19:35:18;;;;;;;17.27;8.60;;;;;;;;;;10436511;28;20491;-79
2022/06/28 19:40:18;;;;;;;13.93;10.02;;;;;;;;;;10437629;28;20037;-78
2022/06/28 19:45:19;;;;;;;12.77;9.67;;;;;;;;;;10441589;28;20123;-73
2022/06/28 19:50:19;;;;;;;11.95;8.95;;;;;;;;;;10434983;28;20443;-77
2022/06/28 19:55:19;;;;;;;12.07;9.07;;;;;;;;;;10435359;28;20060;-77
2022/06/28 20:00:20;;;;;;;21.48;10.68;;;;;;;;;;10437244;28;20029;-78
2022/06/28 20:05:20;;;;;;;12.80;8.30;;;;;;;;;;10420218;28;20028;-77
2022/06/28 20:10:20;;;;;;;13.20;8.43;;;;;;;;;;10434721;28;20482;-77
2022/06/28 20:15:21;;;;;;;11.48;7.93;;;;;;;;;;10441244;28;20507;-78
2022/06/28 20:20:21;;;;;;;10.10;8.20;;;;;;;;;;10441375;28;20021;-76
2022/06/28 20:25:21;;;;;;;12.38;8.25;;;;;;;;;;10441029;28;20083;-76
2022/06/28 20:30:22;;;;;;;13.07;8.65;;;;;;;;;;10423695;28;20021;-74
2022/06/28 20:35:22;;;;;;;12.48;8.43;;;;;;;;;;10440835;28;20020;-74
2022/06/28 20:40:22;;;;;;;16.20;9.00;;;;;;;;;;10440089;28;20491;-75
2022/06/28 20:45:23;;;;;;;10.70;8.23;;;;;;;;;;10439599;28;20598;-77
2022/06/28 20:50:23;;;;;;;10.60;8.15;;;;;;;;;;10436571;28;20095;-77
2022/06/28 20:55:24;;;;;;;13.55;9.23;;;;;;;;;;10439046;28;20021;-77
2022/06/28 21:00:24;;;;;;;15.07;11.18;;;;;;;;;;10437570;28;20064;-77
2022/06/28 21:05:25;;;;;;;16.90;12.03;;;;;;;;;;10440393;28;20035;-76
2022/06/28 21:10:25;;;;;;;17.13;11.43;;;;;;;;;;10434013;28;20105;-77
2022/06/28 21:15:25;;;;;;;17.02;11.98;;;;;;;;;;10438671;28;20061;-75
2022/06/28 21:20:26;;;;;;;20.23;12.38;;;;;;;;;;10441001;28;20039;-75
2022/06/28 21:25:26;;;;;;;22.35;11.90;;;;;;;;;;10439789;28;20032;-72
2022/06/28 21:30:26;;;;;;;19.48;14.02;;;;;;;;;;10441271;28;20021;-73
2022/06/28 21:35:27;;;;;;;18.60;12.87;;;;;;;;;;10440019;28;20021;-76
2022/06/28 21:40:28;;;;;;;20.50;12.38;;;;;;;;;;10439263;28;20289;-73
2022/06/28 21:45:29;;;;;;;32.00;15.82;;;;;;;;;;10439447;28;20021;-73
2022/06/28 21:50:29;;;;;;;19.77;12.20;;;;;;;;;;10438492;28;20029;-76
2022/06/28 21:55:30;;;;;;;22.35;13.43;;;;;;;;;;10440556;28;20044;-74
2022/06/28 22:00:34;;;;;;;20.52;12.60;;;;;;;;;;10438492;28;20037;-75
2022/06/28 22:05:35;;;;;;;21.58;12.55;;;;;;;;;;10438712;28;20017;-73
2022/06/28 22:10:35;;;;;;;17.65;13.43;;;;;;;;;;10443040;28;20040;-72
2022/06/28 22:15:37;;;;;;;29.40;13.95;;;;;;;;;;10447204;28;20495;-78
2022/06/28 22:20:38;;;;;;;19.50;13.30;;;;;;;;;;10445913;28;20036;-76
2022/06/28 22:25:38;;;;;;;23.58;13.63;;;;;;;;;;10448332;28;20017;-74
2022/06/28 22:30:38;;;;;;;20.65;13.38;;;;;;;;;;10447762;28;20019;-77
2022/06/28 22:35:38;;;;;;;19.80;12.13;;;;;;;;;;10447068;28;20392;-75
2022/06/28 22:40:39;;;;;;;24.25;14.48;;;;;;;;;;10445972;28;20036;-76
2022/06/28 22:45:40;;;;;;;16.55;11.52;;;;;;;;;;10445947;28;20494;-73
2022/06/28 22:50:40;;;;;;;15.85;10.32;;;;;;;;;;10445620;28;20475;-73
2022/06/28 22:55:40;;;;;;;18.13;12.18;;;;;;;;;;10446387;28;20037;-77
2022/06/28 23:00:41;;;;;;;15.90;10.93;;;;;;;;;;10445274;28;20559;-75
2022/06/28 23:05:41;;;;;;;14.55;10.23;;;;;;;;;;10444980;28;20021;-73
2022/06/28 23:11:00;;;;;;;14.35;9.98;;;;;;;;;;10444879;28;20021;-76
2022/06/28 23:16:01;;;;;;;12.20;9.10;;;;;;;;;;10444386;28;20529;-71
2022/06/28 23:21:01;;;;;;;16.05;10.25;;;;;;;;;;10443560;28;20483;-72
2022/06/28 23:26:01;;;;;;;13.43;9.73;;;;;;;;;;10443657;28;20025;-78
2022/06/28 23:31:02;;;;;;;15.38;10.68;;;;;;;;;;10444297;28;20025;-76
2022/06/28 23:36:02;;;;;;;14.00;10.47;;;;;;;;;;10443922;28;20025;-71
2022/06/28 23:41:04;;;;;;;21.70;10.13;;;;;;;;;;10444160;28;20497;-77
2022/06/28 23:46:04;;;;;;;14.10;9.77;;;;;;;;;;10442935;28;20013;-76
2022/06/28 23:51:04;;;;;;;17.45;10.00;;;;;;;;;;10443530;28;20016;-72
2022/06/28 23:56:04;;;;;;;14.55;9.48;;;;;;;;;;10442884;28;20025;-75
